X  Schließen Metar Luftfahrt Wetterdaten     EDVE Braunschweig-Wolfsburg Airport
Temperatur
12°C Temperatur
8°C Taupunkt
77% Feuchtigkeit



Wind
8 KM/H
5 MPH
2 M/S
4 KTS



270°
West
Aktuelle Wetterlage

Teilweise bewölkt Teilweise bewölkt
Luftdruck 1002.92 (hPa) - 29.62 (inHg)
Sichtweite 6.2 (Meile) - 10 (km)
Flughafen
Flughafen Code EDVE

Position : Braunschweig-Wolfsburg Airport
Entfernung: 35 (km)

Metar:
EDVE 271120Z 27004KT 230V310 9999 FEW014 BKN018 BKN023 12/08 Q1003

Zeit: 27-09-2020 12:20 BST